sensor_id;sensor_type;location;lat;lon;timestamp;pressure;altitude;pressure_sealevel;temperature;humidity
51460;BME280;37534;39.772;2.718;2023-08-24T00:01:32;101130.19;;;26.58;100.00
51460;BME280;37534;39.772;2.718;2023-08-24T00:03:58;101116.78;;;26.50;100.00
51460;BME280;37534;39.772;2.718;2023-08-24T00:06:24;101129.63;;;26.54;100.00
51460;BME280;37534;39.772;2.718;2023-08-24T00:08:50;101132.41;;;26.53;100.00
51460;BME280;37534;39.772;2.718;2023-08-24T00:11:15;101116.09;;;26.48;100.00
51460;BME280;37534;39.772;2.718;2023-08-24T00:13:44;101121.81;;;26.53;100.00
51460;BME280;37534;39.772;2.718;2023-08-24T00:16:15;101123.44;;;26.65;100.00
51460;BME280;37534;39.772;2.718;2023-08-24T00:18:41;101128.78;;;26.54;100.00
51460;BME280;37534;39.772;2.718;2023-08-24T00:21:08;101122.09;;;26.50;100.00
51460;BME280;37534;39.772;2.718;2023-08-24T00:23:33;101120.06;;;26.32;100.00
51460;BME280;37534;39.772;2.718;2023-08-24T00:25:59;101119.91;;;26.24;100.00
51460;BME280;37534;39.772;2.718;2023-08-24T00:28:25;101126.16;;;26.23;100.00
51460;BME280;37534;39.772;2.718;2023-08-24T00:30:51;101127.84;;;26.24;100.00
51460;BME280;37534;39.772;2.718;2023-08-24T00:33:17;101117.78;;;26.18;100.00
51460;BME280;37534;39.772;2.718;2023-08-24T00:35:42;101123.06;;;26.18;100.00
51460;BME280;37534;39.772;2.718;2023-08-24T00:38:08;101114.69;;;26.13;100.00
51460;BME280;37534;39.772;2.718;2023-08-24T00:40:34;101126.94;;;26.14;100.00
51460;BME280;37534;39.772;2.718;2023-08-24T00:43:00;101121.34;;;26.07;100.00
51460;BME280;37534;39.772;2.718;2023-08-24T00:45:26;101117.44;;;26.11;100.00
51460;BME280;37534;39.772;2.718;2023-08-24T00:47:51;101125.25;;;26.13;100.00
51460;BME280;37534;39.772;2.718;2023-08-24T00:50:18;101112.13;;;26.02;100.00
51460;BME280;37534;39.772;2.718;2023-08-24T00:52:44;101111.34;;;26.11;100.00
51460;BME280;37534;39.772;2.718;2023-08-24T00:55:10;101130.81;;;26.10;100.00
51460;BME280;37534;39.772;2.718;2023-08-24T00:57:37;101126.03;;;26.04;100.00
51460;BME280;37534;39.772;2.718;2023-08-24T01:00:05;101133.97;;;26.04;100.00
51460;BME280;37534;39.772;2.718;2023-08-24T01:02:31;101110.16;;;25.94;100.00
51460;BME280;37534;39.772;2.718;2023-08-24T01:04:58;101128.66;;;25.94;100.00
51460;BME280;37534;39.772;2.718;2023-08-24T01:07:24;101126.59;;;25.97;100.00
51460;BME280;37534;39.772;2.718;2023-08-24T01:09:51;101120.63;;;25.84;100.00
51460;BME280;37534;39.772;2.718;2023-08-24T01:12:33;101120.03;;;25.80;100.00
51460;BME280;37534;39.772;2.718;2023-08-24T01:17:34;101134.78;;;25.83;100.00
51460;BME280;37534;39.772;2.718;2023-08-24T01:20:03;101116.59;;;25.69;100.00
51460;BME280;37534;39.772;2.718;2023-08-24T01:22:55;101130.28;;;25.74;100.00
51460;BME280;37534;39.772;2.718;2023-08-24T01:25:38;101140.25;;;25.70;100.00
51460;BME280;37534;39.772;2.718;2023-08-24T01:28:06;101133.44;;;25.68;100.00
51460;BME280;37534;39.772;2.718;2023-08-24T01:30:34;101136.78;;;25.70;100.00
51460;BME280;37534;39.772;2.718;2023-08-24T01:33:03;101135.84;;;25.71;100.00
51460;BME280;37534;39.772;2.718;2023-08-24T01:35:37;101118.81;;;25.64;100.00
51460;BME280;37534;39.772;2.718;2023-08-24T01:38:04;101125.19;;;25.61;100.00
51460;BME280;37534;39.772;2.718;2023-08-24T01:40:51;101121.88;;;25.69;100.00
51460;BME280;37534;39.772;2.718;2023-08-24T01:43:20;101129.69;;;25.70;100.00
51460;BME280;37534;39.772;2.718;2023-08-24T01:45:47;101121.00;;;25.58;100.00
51460;BME280;37534;39.772;2.718;2023-08-24T01:48:14;101125.75;;;25.65;100.00
51460;BME280;37534;39.772;2.718;2023-08-24T01:50:41;101118.38;;;25.58;100.00
51460;BME280;37534;39.772;2.718;2023-08-24T01:53:07;101119.56;;;25.54;100.00
51460;BME280;37534;39.772;2.718;2023-08-24T01:55:33;101092.53;;;25.30;100.00
51460;BME280;37534;39.772;2.718;2023-08-24T01:58:00;101128.38;;;25.43;100.00
51460;BME280;37534;39.772;2.718;2023-08-24T02:00:25;101128.97;;;25.47;100.00
51460;BME280;37534;39.772;2.718;2023-08-24T02:02:51;101133.88;;;25.52;100.00
51460;BME280;37534;39.772;2.718;2023-08-24T02:05:17;101128.72;;;25.50;100.00
51460;BME280;37534;39.772;2.718;2023-08-24T02:07:42;101114.59;;;25.40;100.00
51460;BME280;37534;39.772;2.718;2023-08-24T02:10:08;101129.47;;;25.41;100.00
51460;BME280;37534;39.772;2.718;2023-08-24T02:12:34;101124.53;;;25.48;100.00
51460;BME280;37534;39.772;2.718;2023-08-24T02:14:59;101102.66;;;25.25;100.00
51460;BME280;37534;39.772;2.718;2023-08-24T02:17:26;101123.03;;;25.34;100.00
51460;BME280;37534;39.772;2.718;2023-08-24T02:19:51;101108.16;;;25.21;100.00
51460;BME280;37534;39.772;2.718;2023-08-24T02:22:17;101120.16;;;25.26;100.00
51460;BME280;37534;39.772;2.718;2023-08-24T02:24:43;101117.28;;;25.17;100.00
51460;BME280;37534;39.772;2.718;2023-08-24T02:27:09;101131.22;;;25.19;100.00
51460;BME280;37534;39.772;2.718;2023-08-24T02:29:34;101109.50;;;25.16;100.00
51460;BME280;37534;39.772;2.718;2023-08-24T02:32:00;101119.66;;;25.20;100.00
51460;BME280;37534;39.772;2.718;2023-08-24T02:34:25;101118.50;;;25.25;100.00
51460;BME280;37534;39.772;2.718;2023-08-24T02:36:51;101112.00;;;25.17;100.00
51460;BME280;37534;39.772;2.718;2023-08-24T02:39:17;101105.16;;;25.15;100.00
51460;BME280;37534;39.772;2.718;2023-08-24T02:41:43;101111.69;;;25.11;100.00
51460;BME280;37534;39.772;2.718;2023-08-24T02:44:08;101119.47;;;25.12;100.00
51460;BME280;37534;39.772;2.718;2023-08-24T02:46:34;101119.44;;;25.23;100.00
51460;BME280;37534;39.772;2.718;2023-08-24T02:48:59;101123.28;;;25.19;100.00
51460;BME280;37534;39.772;2.718;2023-08-24T02:51:25;101117.28;;;25.17;100.00
51460;BME280;37534;39.772;2.718;2023-08-24T02:53:50;101128.84;;;25.05;100.00
51460;BME280;37534;39.772;2.718;2023-08-24T02:56:16;101113.50;;;24.99;100.00
51460;BME280;37534;39.772;2.718;2023-08-24T02:58:42;101117.34;;;24.95;100.00
51460;BME280;37534;39.772;2.718;2023-08-24T03:01:08;101121.34;;;24.89;100.00
51460;BME280;37534;39.772;2.718;2023-08-24T03:03:34;101126.34;;;24.92;100.00
51460;BME280;37534;39.772;2.718;2023-08-24T03:06:02;101120.34;;;24.90;100.00
51460;BME280;37534;39.772;2.718;2023-08-24T03:08:29;101125.97;;;24.97;100.00
51460;BME280;37534;39.772;2.718;2023-08-24T03:10:56;101125.28;;;24.95;100.00
51460;BME280;37534;39.772;2.718;2023-08-24T03:13:22;101128.88;;;24.94;100.00
51460;BME280;37534;39.772;2.718;2023-08-24T03:15:48;101130.91;;;24.90;100.00
51460;BME280;37534;39.772;2.718;2023-08-24T03:18:15;101131.50;;;24.94;100.00
51460;BME280;37534;39.772;2.718;2023-08-24T03:20:41;101131.72;;;24.91;100.00
51460;BME280;37534;39.772;2.718;2023-08-24T03:23:07;101126.13;;;24.84;100.00
51460;BME280;37534;39.772;2.718;2023-08-24T03:25:35;101134.25;;;24.92;100.00
51460;BME280;37534;39.772;2.718;2023-08-24T03:28:02;101129.84;;;24.81;100.00
51460;BME280;37534;39.772;2.718;2023-08-24T03:30:28;101129.47;;;24.75;100.00
51460;BME280;37534;39.772;2.718;2023-08-24T03:32:53;101116.69;;;24.59;100.00
51460;BME280;37534;39.772;2.718;2023-08-24T03:35:19;101125.78;;;24.55;100.00
51460;BME280;37534;39.772;2.718;2023-08-24T03:37:45;101131.53;;;24.48;100.00
51460;BME280;37534;39.772;2.718;2023-08-24T03:40:12;101124.84;;;24.56;100.00
51460;BME280;37534;39.772;2.718;2023-08-24T03:42:37;101138.63;;;24.59;100.00
51460;BME280;37534;39.772;2.718;2023-08-24T03:45:03;101120.25;;;24.35;100.00
51460;BME280;37534;39.772;2.718;2023-08-24T03:47:29;101136.78;;;24.37;100.00
51460;BME280;37534;39.772;2.718;2023-08-24T03:49:54;101131.50;;;24.26;100.00
51460;BME280;37534;39.772;2.718;2023-08-24T03:52:20;101142.06;;;24.26;100.00
51460;BME280;37534;39.772;2.718;2023-08-24T03:54:46;101131.03;;;24.21;100.00
51460;BME280;37534;39.772;2.718;2023-08-24T03:57:11;101138.94;;;24.21;100.00
51460;BME280;37534;39.772;2.718;2023-08-24T03:59:37;101145.63;;;24.25;100.00
51460;BME280;37534;39.772;2.718;2023-08-24T04:02:02;101138.94;;;24.21;100.00
51460;BME280;37534;39.772;2.718;2023-08-24T04:04:30;101146.84;;;24.21;100.00
51460;BME280;37534;39.772;2.718;2023-08-24T04:06:55;101141.78;;;24.18;100.00
51460;BME280;37534;39.772;2.718;2023-08-24T04:09:21;101132.94;;;24.07;100.00
51460;BME280;37534;39.772;2.718;2023-08-24T04:11:46;101146.59;;;24.13;100.00
51460;BME280;37534;39.772;2.718;2023-08-24T04:14:12;101140.09;;;24.05;100.00
51460;BME280;37534;39.772;2.718;2023-08-24T04:16:39;101145.38;;;24.05;100.00
51460;BME280;37534;39.772;2.718;2023-08-24T04:19:04;101148.75;;;24.07;100.00
51460;BME280;37534;39.772;2.718;2023-08-24T04:21:30;101160.38;;;24.16;100.00
51460;BME280;37534;39.772;2.718;2023-08-24T04:23:56;101152.34;;;24.18;100.00
51460;BME280;37534;39.772;2.718;2023-08-24T04:26:21;101149.50;;;24.32;100.00
51460;BME280;37534;39.772;2.718;2023-08-24T04:28:47;101155.00;;;24.29;100.00
51460;BME280;37534;39.772;2.718;2023-08-24T04:31:12;101156.44;;;24.22;100.00
51460;BME280;37534;39.772;2.718;2023-08-24T04:33:38;101147.06;;;24.06;100.00
51460;BME280;37534;39.772;2.718;2023-08-24T04:36:04;101153.53;;;24.02;100.00
51460;BME280;37534;39.772;2.718;2023-08-24T04:38:30;101155.56;;;23.99;100.00
51460;BME280;37534;39.772;2.718;2023-08-24T04:40:56;101150.41;;;23.97;100.00
51460;BME280;37534;39.772;2.718;2023-08-24T04:43:23;101153.75;;;23.99;100.00
51460;BME280;37534;39.772;2.718;2023-08-24T04:45:53;101155.41;;;23.89;100.00
51460;BME280;37534;39.772;2.718;2023-08-24T04:48:20;101147.44;;;23.78;100.00
51460;BME280;37534;39.772;2.718;2023-08-24T04:50:46;101150.50;;;23.71;100.00
51460;BME280;37534;39.772;2.718;2023-08-24T04:53:16;101146.66;;;23.64;100.00
51460;BME280;37534;39.772;2.718;2023-08-24T04:55:42;101167.47;;;23.80;100.00
51460;BME280;37534;39.772;2.718;2023-08-24T04:58:08;101167.13;;;23.85;100.00
51460;BME280;37534;39.772;2.718;2023-08-24T05:00:35;101148.84;;;23.70;100.00
51460;BME280;37534;39.772;2.718;2023-08-24T05:03:02;101167.50;;;23.67;100.00
51460;BME280;37534;39.772;2.718;2023-08-24T05:05:35;101168.91;;;23.60;100.00
51460;BME280;37534;39.772;2.718;2023-08-24T05:08:02;101158.97;;;23.52;100.00
51460;BME280;37534;39.772;2.718;2023-08-24T05:10:32;101157.63;;;23.47;100.00
51460;BME280;37534;39.772;2.718;2023-08-24T05:12:58;101170.94;;;23.57;100.00
51460;BME280;37534;39.772;2.718;2023-08-24T05:15:24;101165.06;;;23.53;100.00
51460;BME280;37534;39.772;2.718;2023-08-24T05:17:50;101174.19;;;23.60;100.00
51460;BME280;37534;39.772;2.718;2023-08-24T05:20:19;101181.41;;;23.69;100.00
51460;BME280;37534;39.772;2.718;2023-08-24T05:22:44;101187.03;;;23.89;100.00
51460;BME280;37534;39.772;2.718;2023-08-24T05:25:10;101177.81;;;23.95;100.00
51460;BME280;37534;39.772;2.718;2023-08-24T05:27:36;101191.25;;;23.91;100.00
51460;BME280;37534;39.772;2.718;2023-08-24T05:30:02;101189.41;;;23.81;100.00
51460;BME280;37534;39.772;2.718;2023-08-24T05:32:28;101195.91;;;23.75;100.00
51460;BME280;37534;39.772;2.718;2023-08-24T05:34:53;101198.53;;;23.75;100.00
51460;BME280;37534;39.772;2.718;2023-08-24T05:37:19;101205.47;;;23.89;100.00
51460;BME280;37534;39.772;2.718;2023-08-24T05:39:45;101213.16;;;23.92;100.00
51460;BME280;37534;39.772;2.718;2023-08-24T05:42:10;101203.31;;;23.83;100.00
51460;BME280;37534;39.772;2.718;2023-08-24T05:44:36;101212.97;;;23.82;100.00
51460;BME280;37534;39.772;2.718;2023-08-24T05:47:01;101202.56;;;23.81;100.00
51460;BME280;37534;39.772;2.718;2023-08-24T05:49:27;101205.47;;;23.89;100.00
51460;BME280;37534;39.772;2.718;2023-08-24T05:51:53;101204.75;;;23.87;100.00
51460;BME280;37534;39.772;2.718;2023-08-24T05:54:19;101209.41;;;23.83;100.00
51460;BME280;37534;39.772;2.718;2023-08-24T05:56:48;101209.06;;;23.88;100.00
51460;BME280;37534;39.772;2.718;2023-08-24T05:59:14;101206.88;;;23.82;100.00
51460;BME280;37534;39.772;2.718;2023-08-24T06:01:40;101210.72;;;23.89;100.00
51460;BME280;37534;39.772;2.718;2023-08-24T06:04:07;101210.41;;;23.94;100.00
51460;BME280;37534;39.772;2.718;2023-08-24T06:06:34;101210.53;;;24.03;100.00
51460;BME280;37534;39.772;2.718;2023-08-24T06:08:59;101212.22;;;24.04;100.00
51460;BME280;37534;39.772;2.718;2023-08-24T06:11:25;101197.72;;;23.99;100.00
51460;BME280;37534;39.772;2.718;2023-08-24T06:13:50;101205.16;;;24.05;100.00
51460;BME280;37534;39.772;2.718;2023-08-24T06:16:20;101198.34;;;24.02;100.00
51460;BME280;37534;39.772;2.718;2023-08-24T06:18:45;101201.00;;;24.14;100.00
51460;BME280;37534;39.772;2.718;2023-08-24T06:21:11;101202.56;;;24.16;100.00
51460;BME280;37534;39.772;2.718;2023-08-24T06:23:38;101196.44;;;24.16;100.00
51460;BME280;37534;39.772;2.718;2023-08-24T06:26:04;101184.34;;;24.13;100.00
51460;BME280;37534;39.772;2.718;2023-08-24T06:28:30;101188.31;;;24.19;100.00
51460;BME280;37534;39.772;2.718;2023-08-24T06:30:56;101194.06;;;24.35;100.00
51460;BME280;37534;39.772;2.718;2023-08-24T06:33:27;101183.56;;;24.46;100.00
51460;BME280;37534;39.772;2.718;2023-08-24T06:35:56;101181.75;;;24.47;100.00
51460;BME280;37534;39.772;2.718;2023-08-24T06:38:22;101182.16;;;24.54;100.00
51460;BME280;37534;39.772;2.718;2023-08-24T06:40:47;101186.34;;;24.67;100.00
51460;BME280;37534;39.772;2.718;2023-08-24T06:43:13;101192.00;;;24.85;100.00
51460;BME280;37534;39.772;2.718;2023-08-24T06:45:40;101188.13;;;25.01;100.00
51460;BME280;37534;39.772;2.718;2023-08-24T06:48:05;101192.44;;;25.25;100.00
51460;BME280;37534;39.772;2.718;2023-08-24T06:50:35;101177.28;;;25.38;100.00
51460;BME280;37534;39.772;2.718;2023-08-24T06:53:05;101196.16;;;25.66;100.00
51460;BME280;37534;39.772;2.718;2023-08-24T06:55:31;101183.00;;;25.75;100.00
51460;BME280;37534;39.772;2.718;2023-08-24T06:57:56;101195.91;;;26.01;100.00
51460;BME280;37534;39.772;2.718;2023-08-24T07:00:22;101182.22;;;26.17;100.00
51460;BME280;37534;39.772;2.718;2023-08-24T07:02:49;101197.91;;;26.40;100.00
51460;BME280;37534;39.772;2.718;2023-08-24T07:05:15;101200.53;;;26.61;100.00
51460;BME280;37534;39.772;2.718;2023-08-24T07:07:47;101197.72;;;26.83;100.00
51460;BME280;37534;39.772;2.718;2023-08-24T07:10:14;101192.06;;;26.98;99.65
51460;BME280;37534;39.772;2.718;2023-08-24T07:12:40;101193.63;;;27.20;93.63
51460;BME280;37534;39.772;2.718;2023-08-24T07:15:07;101200.41;;;27.43;95.55
51460;BME280;37534;39.772;2.718;2023-08-24T07:17:32;101196.78;;;27.54;95.83
51460;BME280;37534;39.772;2.718;2023-08-24T07:19:58;101206.84;;;27.70;92.66
51460;BME280;37534;39.772;2.718;2023-08-24T07:22:24;101202.22;;;27.82;90.01
51460;BME280;37534;39.772;2.718;2023-08-24T07:24:52;101195.66;;;27.96;86.70
51460;BME280;37534;39.772;2.718;2023-08-24T07:27:18;101191.88;;;28.08;89.10
51460;BME280;37534;39.772;2.718;2023-08-24T07:29:44;101201.47;;;28.29;88.60
51460;BME280;37534;39.772;2.718;2023-08-24T07:32:10;101205.31;;;28.44;82.34
51460;BME280;37534;39.772;2.718;2023-08-24T07:34:35;101199.91;;;28.55;83.80
51460;BME280;37534;39.772;2.718;2023-08-24T07:37:01;101192.28;;;28.70;78.72
51460;BME280;37534;39.772;2.718;2023-08-24T07:39:27;101189.28;;;28.83;76.03
51460;BME280;37534;39.772;2.718;2023-08-24T07:41:53;101200.94;;;29.00;77.21
51460;BME280;37534;39.772;2.718;2023-08-24T07:44:18;101196.94;;;29.14;80.06
51460;BME280;37534;39.772;2.718;2023-08-24T07:46:44;101181.09;;;29.22;80.73
51460;BME280;37534;39.772;2.718;2023-08-24T07:49:09;101188.63;;;29.45;74.03
51460;BME280;37534;39.772;2.718;2023-08-24T07:51:35;101186.78;;;29.63;74.74
51460;BME280;37534;39.772;2.718;2023-08-24T07:54:01;101187.34;;;29.85;74.01
51460;BME280;37534;39.772;2.718;2023-08-24T07:56:26;101192.22;;;30.16;71.76
51460;BME280;37534;39.772;2.718;2023-08-24T07:58:52;101195.06;;;30.40;71.14
51460;BME280;37534;39.772;2.718;2023-08-24T08:01:17;101197.84;;;30.65;66.54
51460;BME280;37534;39.772;2.718;2023-08-24T08:03:43;101183.41;;;30.76;64.60
51460;BME280;37534;39.772;2.718;2023-08-24T08:06:09;101183.00;;;31.05;67.43
51460;BME280;37534;39.772;2.718;2023-08-24T08:08:34;101173.72;;;31.25;64.60
51460;BME280;37534;39.772;2.718;2023-08-24T08:11:01;101185.09;;;31.52;62.51
51460;BME280;37534;39.772;2.718;2023-08-24T08:13:28;101185.44;;;31.82;60.42
51460;BME280;37534;39.772;2.718;2023-08-24T08:16:03;101189.06;;;32.14;54.73
51460;BME280;37534;39.772;2.718;2023-08-24T08:18:29;101192.16;;;32.42;48.62
51460;BME280;37534;39.772;2.718;2023-08-24T08:20:55;101191.28;;;32.66;47.61
51460;BME280;37534;39.772;2.718;2023-08-24T08:23:21;101194.81;;;32.98;47.91
51460;BME280;37534;39.772;2.718;2023-08-24T08:25:46;101189.09;;;33.32;50.45
51460;BME280;37534;39.772;2.718;2023-08-24T08:28:12;101188.38;;;33.62;49.31
51460;BME280;37534;39.772;2.718;2023-08-24T08:30:38;101197.44;;;33.99;51.39
51460;BME280;37534;39.772;2.718;2023-08-24T08:33:03;101196.72;;;34.20;59.39
51460;BME280;37534;39.772;2.718;2023-08-24T08:35:30;101207.91;;;34.23;63.05
51460;BME280;37534;39.772;2.718;2023-08-24T08:37:55;101212.34;;;34.46;67.07
51460;BME280;37534;39.772;2.718;2023-08-24T08:40:21;101203.34;;;34.69;66.42
51460;BME280;37534;39.772;2.718;2023-08-24T08:42:56;101208.00;;;34.75;66.97
51460;BME280;37534;39.772;2.718;2023-08-24T08:45:24;101212.47;;;34.89;64.95
51460;BME280;37534;39.772;2.718;2023-08-24T08:47:51;101209.59;;;35.06;65.14
51460;BME280;37534;39.772;2.718;2023-08-24T08:50:17;101209.91;;;35.32;64.55
51460;BME280;37534;39.772;2.718;2023-08-24T08:52:43;101204.53;;;35.54;63.44
51460;BME280;37534;39.772;2.718;2023-08-24T08:55:08;101207.59;;;35.72;63.45
51460;BME280;37534;39.772;2.718;2023-08-24T08:57:37;101207.28;;;35.89;62.76
51460;BME280;37534;39.772;2.718;2023-08-24T09:00:05;101215.22;;;35.97;61.23
51460;BME280;37534;39.772;2.718;2023-08-24T09:02:32;101224.19;;;36.11;60.04
51460;BME280;37534;39.772;2.718;2023-08-24T09:04:59;101215.47;;;36.30;56.78
51460;BME280;37534;39.772;2.718;2023-08-24T09:07:25;101220.16;;;36.57;54.40
51460;BME280;37534;39.772;2.718;2023-08-24T09:09:50;101228.75;;;36.80;55.87
51460;BME280;37534;39.772;2.718;2023-08-24T09:12:16;101218.69;;;37.09;52.79
51460;BME280;37534;39.772;2.718;2023-08-24T09:14:41;101216.28;;;37.27;48.69
51460;BME280;37534;39.772;2.718;2023-08-24T09:17:07;101226.69;;;37.71;49.61
51460;BME280;37534;39.772;2.718;2023-08-24T09:19:33;101225.00;;;38.10;46.22
51460;BME280;37534;39.772;2.718;2023-08-24T09:22:04;101219.97;;;38.33;42.13
51460;BME280;37534;39.772;2.718;2023-08-24T09:24:33;101219.91;;;38.53;43.35
51460;BME280;37534;39.772;2.718;2023-08-24T09:27:20;101219.53;;;38.95;42.76
51460;BME280;37534;39.772;2.718;2023-08-24T09:29:50;101220.75;;;39.38;41.43
51460;BME280;37534;39.772;2.718;2023-08-24T09:32:23;101223.88;;;39.66;40.27
51460;BME280;37534;39.772;2.718;2023-08-24T09:34:49;101223.59;;;40.00;38.01
51460;BME280;37534;39.772;2.718;2023-08-24T09:37:15;101225.28;;;40.38;35.80
51460;BME280;37534;39.772;2.718;2023-08-24T09:39:42;101224.94;;;40.64;34.14
51460;BME280;37534;39.772;2.718;2023-08-24T09:45:27;101216.53;;;41.57;33.87
51460;BME280;37534;39.772;2.718;2023-08-24T09:47:52;101222.09;;;41.86;33.15
51460;BME280;37534;39.772;2.718;2023-08-24T09:50:18;101230.25;;;42.09;35.08
51460;BME280;37534;39.772;2.718;2023-08-24T09:52:44;101222.09;;;42.21;32.03
51460;BME280;37534;39.772;2.718;2023-08-24T09:55:13;101225.03;;;42.31;33.74
51460;BME280;37534;39.772;2.718;2023-08-24T09:57:43;101226.53;;;42.39;34.56
51460;BME280;37534;39.772;2.718;2023-08-24T10:00:10;101222.59;;;42.59;31.59
51460;BME280;37534;39.772;2.718;2023-08-24T10:02:39;101226.88;;;42.54;31.72
51460;BME280;37534;39.772;2.718;2023-08-24T10:05:06;101227.38;;;42.80;32.44
51460;BME280;37534;39.772;2.718;2023-08-24T10:07:33;101234.13;;;43.23;30.46
51460;BME280;37534;39.772;2.718;2023-08-24T10:10:02;101231.28;;;43.47;30.11
51460;BME280;37534;39.772;2.718;2023-08-24T10:12:30;101227.56;;;44.09;28.88
51460;BME280;37534;39.772;2.718;2023-08-24T10:15:02;101223.50;;;44.29;28.41
51460;BME280;37534;39.772;2.718;2023-08-24T10:17:29;101227.31;;;44.11;28.63
51460;BME280;37534;39.772;2.718;2023-08-24T10:19:58;101214.78;;;44.10;27.90
51460;BME280;37534;39.772;2.718;2023-08-24T10:22:27;101215.44;;;44.17;28.61
51460;BME280;37534;39.772;2.718;2023-08-24T10:24:54;101218.03;;;44.07;28.21
51460;BME280;37534;39.772;2.718;2023-08-24T10:27:23;101213.31;;;43.80;30.18
51460;BME280;37534;39.772;2.718;2023-08-24T10:29:49;101226.41;;;43.66;30.31
51460;BME280;37534;39.772;2.718;2023-08-24T10:32:15;101214.03;;;43.92;30.89
51460;BME280;37534;39.772;2.718;2023-08-24T10:34:42;101220.97;;;43.83;30.79
51460;BME280;37534;39.772;2.718;2023-08-24T10:37:08;101219.75;;;43.74;30.85
51460;BME280;37534;39.772;2.718;2023-08-24T10:39:44;101228.06;;;43.84;31.70
51460;BME280;37534;39.772;2.718;2023-08-24T10:42:11;101213.56;;;43.61;31.88
51460;BME280;37534;39.772;2.718;2023-08-24T10:44:39;101228.53;;;43.81;31.48
51460;BME280;37534;39.772;2.718;2023-08-24T10:47:23;101224.75;;;43.31;31.96
51460;BME280;37534;39.772;2.718;2023-08-24T10:52:21;101225.06;;;43.68;31.53
51460;BME280;37534;39.772;2.718;2023-08-24T10:54:51;101224.34;;;43.56;31.52
51460;BME280;37534;39.772;2.718;2023-08-24T10:57:34;101216.69;;;43.19;32.31
51460;BME280;37534;39.772;2.718;2023-08-24T11:00:06;101226.88;;;42.83;33.88
51460;BME280;37534;39.772;2.718;2023-08-24T11:02:49;101220.75;;;43.05;34.30
51460;BME280;37534;39.772;2.718;2023-08-24T11:05:22;101214.31;;;43.23;33.07
51460;BME280;37534;39.772;2.718;2023-08-24T11:07:53;101220.47;;;43.35;33.04
51460;BME280;37534;39.772;2.718;2023-08-24T11:10:24;101221.59;;;43.22;33.69
51460;BME280;37534;39.772;2.718;2023-08-24T11:15:39;101217.44;;;42.45;37.03
51460;BME280;37534;39.772;2.718;2023-08-24T11:20:45;101218.38;;;42.63;37.71
51460;BME280;37534;39.772;2.718;2023-08-24T11:23:12;101211.97;;;42.69;38.79
51460;BME280;37534;39.772;2.718;2023-08-24T11:25:38;101202.44;;;42.02;39.91
51460;BME280;37534;39.772;2.718;2023-08-24T11:28:04;101199.47;;;42.15;39.34
51460;BME280;37534;39.772;2.718;2023-08-24T11:30:34;101210.69;;;41.84;39.72
51460;BME280;37534;39.772;2.718;2023-08-24T11:33:00;101215.28;;;41.59;40.90
51460;BME280;37534;39.772;2.718;2023-08-24T11:35:27;101213.53;;;41.65;41.71
51460;BME280;37534;39.772;2.718;2023-08-24T11:37:53;101212.56;;;41.71;41.53
51460;BME280;37534;39.772;2.718;2023-08-24T11:40:19;101216.44;;;42.23;40.48
51460;BME280;37534;39.772;2.718;2023-08-24T11:42:46;101192.31;;;42.09;41.32
51460;BME280;37534;39.772;2.718;2023-08-24T11:45:12;101205.41;;;42.53;39.22
51460;BME280;37534;39.772;2.718;2023-08-24T11:47:39;101209.88;;;42.88;38.67
51460;BME280;37534;39.772;2.718;2023-08-24T11:50:05;101207.53;;;43.25;39.30
51460;BME280;37534;39.772;2.718;2023-08-24T11:52:31;101209.34;;;43.03;38.94
51460;BME280;37534;39.772;2.718;2023-08-24T11:55:01;101213.38;;;43.17;38.02
51460;BME280;37534;39.772;2.718;2023-08-24T11:57:26;101201.53;;;43.23;38.18
51460;BME280;37534;39.772;2.718;2023-08-24T11:59:54;101209.44;;;43.08;38.71
51460;BME280;37534;39.772;2.718;2023-08-24T12:02:21;101205.84;;;43.19;38.49
51460;BME280;37534;39.772;2.718;2023-08-24T12:04:48;101205.97;;;43.63;38.17
51460;BME280;37534;39.772;2.718;2023-08-24T12:07:15;101187.22;;;43.28;37.03
51460;BME280;37534;39.772;2.718;2023-08-24T12:09:41;101194.63;;;42.99;39.55
51460;BME280;37534;39.772;2.718;2023-08-24T12:12:14;101204.25;;;42.78;38.90
51460;BME280;37534;39.772;2.718;2023-08-24T12:14:43;101206.84;;;42.56;38.76
51460;BME280;37534;39.772;2.718;2023-08-24T12:17:10;101197.13;;;41.84;40.52
51460;BME280;37534;39.772;2.718;2023-08-24T12:19:36;101197.59;;;42.16;39.97
51460;BME280;37534;39.772;2.718;2023-08-24T12:22:01;101198.19;;;42.18;41.07
51460;BME280;37534;39.772;2.718;2023-08-24T12:24:28;101205.03;;;41.97;42.56
51460;BME280;37534;39.772;2.718;2023-08-24T12:26:57;101192.66;;;42.13;42.26
51460;BME280;37534;39.772;2.718;2023-08-24T12:29:23;101195.47;;;42.59;41.63
51460;BME280;37534;39.772;2.718;2023-08-24T12:31:49;101186.00;;;42.73;41.86
51460;BME280;37534;39.772;2.718;2023-08-24T12:34:15;101180.75;;;42.83;40.46
51460;BME280;37534;39.772;2.718;2023-08-24T12:36:41;101189.47;;;42.85;40.70
51460;BME280;37534;39.772;2.718;2023-08-24T12:39:10;101188.75;;;43.36;40.26
51460;BME280;37534;39.772;2.718;2023-08-24T12:41:38;101182.84;;;43.10;39.81
51460;BME280;37534;39.772;2.718;2023-08-24T12:44:04;101187.25;;;42.82;41.50
51460;BME280;37534;39.772;2.718;2023-08-24T12:46:37;101180.06;;;42.76;41.31
51460;BME280;37534;39.772;2.718;2023-08-24T12:49:03;101188.44;;;42.74;41.98
51460;BME280;37534;39.772;2.718;2023-08-24T12:51:29;101182.00;;;42.64;40.94
51460;BME280;37534;39.772;2.718;2023-08-24T12:53:54;101177.56;;;42.58;41.39
51460;BME280;37534;39.772;2.718;2023-08-24T12:56:20;101176.25;;;42.60;42.78
51460;BME280;37534;39.772;2.718;2023-08-24T12:58:46;101177.59;;;42.74;42.10